Terminal Aerodrome Forecast
Issued by NWS

Home | Current Version | Previous Version | Text Only | Print | Product List | Glossary On
Versions: 1 2 3 4 5 6 7 8 9 10 11 12 13 14 15 16 17 18 19 20 21
615
FTUS41 KCAR 211009 AAA
TAFBHB
TAF AMD
KBHB 211009Z 2110/2206 VRB02KT 1/4SM FG OVC002
     FM211200 23010KT P6SM FEW250
     FM220000 25007KT P6SM VCSH BKN200
     FM220100 26006KT P6SM BKN200=

USA.gov is the U.S. government's official web portal to all federal, state and local government web resources and services.